sensor_id;sensor_type;location;lat;lon;timestamp;pressure;altitude;pressure_sealevel;temperature;humidity
12949;BME280;6539;49.476;8.484;2022-08-07T00:01:58;101157.91;;;23.51;31.06
12949;BME280;6539;49.476;8.484;2022-08-07T00:04:23;101157.91;;;23.51;30.82
12949;BME280;6539;49.476;8.484;2022-08-07T00:06:49;101152.16;;;23.55;31.21
12949;BME280;6539;49.476;8.484;2022-08-07T00:09:15;101164.75;;;23.59;31.22
12949;BME280;6539;49.476;8.484;2022-08-07T00:11:43;101160.66;;;23.60;31.13
12949;BME280;6539;49.476;8.484;2022-08-07T00:14:09;101152.56;;;23.62;31.01
12949;BME280;6539;49.476;8.484;2022-08-07T00:16:34;101157.69;;;23.64;30.73
12949;BME280;6539;49.476;8.484;2022-08-07T00:19:00;101155.25;;;23.57;30.70
12949;BME280;6539;49.476;8.484;2022-08-07T00:21:26;101151.72;;;23.47;30.92
12949;BME280;6539;49.476;8.484;2022-08-07T00:23:52;101150.91;;;23.46;31.36
12949;BME280;6539;49.476;8.484;2022-08-07T00:26:17;101145.56;;;23.58;31.21
12949;BME280;6539;49.476;8.484;2022-08-07T00:28:43;101149.59;;;23.66;31.09
12949;BME280;6539;49.476;8.484;2022-08-07T00:31:12;101152.19;;;23.69;31.22
12949;BME280;6539;49.476;8.484;2022-08-07T00:33:39;101150.63;;;23.68;30.92
12949;BME280;6539;49.476;8.484;2022-08-07T00:36:08;101152.19;;;23.69;30.45
12949;BME280;6539;49.476;8.484;2022-08-07T00:38:35;101150.63;;;23.68;30.87
12949;BME280;6539;49.476;8.484;2022-08-07T00:41:07;101155.31;;;23.71;30.86
12949;BME280;6539;49.476;8.484;2022-08-07T00:43:35;101155.13;;;23.75;31.14
12949;BME280;6539;49.476;8.484;2022-08-07T00:46:06;101144.69;;;23.75;30.92
12949;BME280;6539;49.476;8.484;2022-08-07T00:48:31;101156.84;;;23.72;30.56
12949;BME280;6539;49.476;8.484;2022-08-07T00:51:02;101155.94;;;23.66;30.89
12949;BME280;6539;49.476;8.484;2022-08-07T00:53:28;101139.59;;;23.65;31.28
12949;BME280;6539;49.476;8.484;2022-08-07T00:55:54;101148.91;;;23.71;31.16
12949;BME280;6539;49.476;8.484;2022-08-07T00:58:19;101140.97;;;23.69;31.18
12949;BME280;6539;49.476;8.484;2022-08-07T01:00:48;101149.09;;;23.67;31.04
12949;BME280;6539;49.476;8.484;2022-08-07T01:03:19;101146.34;;;23.58;31.10
12949;BME280;6539;49.476;8.484;2022-08-07T01:05:46;101147.72;;;23.63;31.45
12949;BME280;6539;49.476;8.484;2022-08-07T01:08:14;101144.13;;;23.62;31.10
12949;BME280;6539;49.476;8.484;2022-08-07T01:10:42;101146.00;;;23.65;31.18
12949;BME280;6539;49.476;8.484;2022-08-07T01:13:08;101138.97;;;23.70;31.40
12949;BME280;6539;49.476;8.484;2022-08-07T01:15:37;101140.41;;;23.65;31.38
12949;BME280;6539;49.476;8.484;2022-08-07T01:18:04;101135.88;;;23.68;31.21
12949;BME280;6539;49.476;8.484;2022-08-07T01:20:42;101141.94;;;23.66;31.28
12949;BME280;6539;49.476;8.484;2022-08-07T01:23:09;101143.66;;;23.64;31.81
12949;BME280;6539;49.476;8.484;2022-08-07T01:25:37;101143.84;;;23.60;31.92
12949;BME280;6539;49.476;8.484;2022-08-07T01:28:05;101138.28;;;23.51;31.96
12949;BME280;6539;49.476;8.484;2022-08-07T01:30:34;101137.03;;;23.52;32.44
12949;BME280;6539;49.476;8.484;2022-08-07T01:33:02;101146.28;;;23.43;32.53
12949;BME280;6539;49.476;8.484;2022-08-07T01:35:27;101147.38;;;23.46;32.59
12949;BME280;6539;49.476;8.484;2022-08-07T01:37:53;101141.47;;;23.44;32.38
12949;BME280;6539;49.476;8.484;2022-08-07T01:40:21;101149.91;;;23.35;32.77
12949;BME280;6539;49.476;8.484;2022-08-07T01:42:51;101143.69;;;23.31;32.75
12949;BME280;6539;49.476;8.484;2022-08-07T01:45:20;101153.16;;;23.33;32.71
12949;BME280;6539;49.476;8.484;2022-08-07T01:47:48;101146.81;;;23.33;32.80
12949;BME280;6539;49.476;8.484;2022-08-07T01:50:15;101149.63;;;23.33;32.68
12949;BME280;6539;49.476;8.484;2022-08-07T01:52:44;101153.03;;;23.37;32.85
12949;BME280;6539;49.476;8.484;2022-08-07T01:55:15;101150.03;;;23.31;32.69
12949;BME280;6539;49.476;8.484;2022-08-07T01:57:46;101140.09;;;23.30;32.88
12949;BME280;6539;49.476;8.484;2022-08-07T02:00:13;101139.31;;;23.30;33.17
12949;BME280;6539;49.476;8.484;2022-08-07T02:02:54;101129.19;;;23.32;33.10
12949;BME280;6539;49.476;8.484;2022-08-07T02:05:34;101137.28;;;23.30;32.81
12949;BME280;6539;49.476;8.484;2022-08-07T02:08:08;101142.59;;;23.28;32.75
12949;BME280;6539;49.476;8.484;2022-08-07T02:10:40;101134.34;;;23.25;33.09
12949;BME280;6539;49.476;8.484;2022-08-07T02:13:09;101134.13;;;23.14;33.26
12949;BME280;6539;49.476;8.484;2022-08-07T02:15:39;101130.22;;;23.11;33.21
12949;BME280;6539;49.476;8.484;2022-08-07T02:18:11;101129.78;;;23.04;33.51
12949;BME280;6539;49.476;8.484;2022-08-07T02:20:39;101123.88;;;23.02;33.70
12949;BME280;6539;49.476;8.484;2022-08-07T02:23:07;101124.97;;;23.04;33.60
12949;BME280;6539;49.476;8.484;2022-08-07T02:25:37;101128.25;;;23.03;33.79
12949;BME280;6539;49.476;8.484;2022-08-07T02:28:06;101119.84;;;23.03;33.95
12949;BME280;6539;49.476;8.484;2022-08-07T02:30:35;101119.84;;;23.03;33.89
12949;BME280;6539;49.476;8.484;2022-08-07T02:33:04;101118.88;;;23.06;33.72
12949;BME280;6539;49.476;8.484;2022-08-07T02:35:35;101121.38;;;23.04;33.85
12949;BME280;6539;49.476;8.484;2022-08-07T02:38:04;101117.03;;;23.03;33.73
12949;BME280;6539;49.476;8.484;2022-08-07T02:40:34;101115.47;;;23.02;33.89
12949;BME280;6539;49.476;8.484;2022-08-07T02:43:05;101107.88;;;22.93;33.86
12949;BME280;6539;49.476;8.484;2022-08-07T02:45:33;101106.34;;;22.92;34.00
12949;BME280;6539;49.476;8.484;2022-08-07T02:48:01;101107.19;;;22.74;33.87
12949;BME280;6539;49.476;8.484;2022-08-07T02:50:28;101109.22;;;22.65;34.19
12949;BME280;6539;49.476;8.484;2022-08-07T02:53:08;101109.84;;;22.69;34.00
12949;BME280;6539;49.476;8.484;2022-08-07T02:55:38;101101.44;;;22.69;34.09
12949;BME280;6539;49.476;8.484;2022-08-07T02:58:13;101094.78;;;22.66;34.32
12949;BME280;6539;49.476;8.484;2022-08-07T03:00:42;101097.22;;;22.73;34.30
12949;BME280;6539;49.476;8.484;2022-08-07T03:03:10;101102.53;;;22.71;34.22
12949;BME280;6539;49.476;8.484;2022-08-07T03:05:37;101098.50;;;22.72;34.28
12949;BME280;6539;49.476;8.484;2022-08-07T03:08:05;101102.03;;;22.73;33.96
12949;BME280;6539;49.476;8.484;2022-08-07T03:10:36;101099.75;;;22.62;34.19
12949;BME280;6539;49.476;8.484;2022-08-07T03:13:03;101099.75;;;22.53;34.32
12949;BME280;6539;49.476;8.484;2022-08-07T03:15:32;101096.31;;;22.58;34.60
12949;BME280;6539;49.476;8.484;2022-08-07T03:17:59;101097.59;;;22.66;34.55
12949;BME280;6539;49.476;8.484;2022-08-07T03:20:26;101093.34;;;22.71;34.15
12949;BME280;6539;49.476;8.484;2022-08-07T03:22:59;101093.41;;;22.62;34.19
12949;BME280;6539;49.476;8.484;2022-08-07T03:25:27;101098.31;;;22.58;34.35
12949;BME280;6539;49.476;8.484;2022-08-07T03:27:58;101096.50;;;22.46;34.19
12949;BME280;6539;49.476;8.484;2022-08-07T03:30:25;101096.50;;;22.37;34.19
12949;BME280;6539;49.476;8.484;2022-08-07T03:32:53;101105.88;;;22.34;34.48
12949;BME280;6539;49.476;8.484;2022-08-07T03:35:26;101101.38;;;22.27;34.33
12949;BME280;6539;49.476;8.484;2022-08-07T03:37:58;101096.38;;;22.31;34.65
12949;BME280;6539;49.476;8.484;2022-08-07T03:40:28;101103.84;;;22.25;34.69
12949;BME280;6539;49.476;8.484;2022-08-07T03:42:58;101102.13;;;22.28;34.82
12949;BME280;6539;49.476;8.484;2022-08-07T03:45:27;101096.53;;;22.28;34.61
12949;BME280;6539;49.476;8.484;2022-08-07T03:47:57;101101.66;;;22.38;34.73
12949;BME280;6539;49.476;8.484;2022-08-07T03:50:24;101102.59;;;22.35;34.67
12949;BME280;6539;49.476;8.484;2022-08-07T03:52:55;101103.50;;;22.32;34.43
12949;BME280;6539;49.476;8.484;2022-08-07T03:55:24;101108.06;;;22.21;34.68
12949;BME280;6539;49.476;8.484;2022-08-07T03:57:54;101115.50;;;22.24;34.89
12949;BME280;6539;49.476;8.484;2022-08-07T04:00:25;101104.63;;;22.26;34.81
12949;BME280;6539;49.476;8.484;2022-08-07T04:02:51;101101.38;;;22.27;34.94
12949;BME280;6539;49.476;8.484;2022-08-07T04:05:20;101108.97;;;22.18;34.35
12949;BME280;6539;49.476;8.484;2022-08-07T04:07:50;101111.63;;;22.21;34.94
12949;BME280;6539;49.476;8.484;2022-08-07T04:10:18;101109.91;;;22.33;34.89
12949;BME280;6539;49.476;8.484;2022-08-07T04:12:49;101111.28;;;22.28;34.84
12949;BME280;6539;49.476;8.484;2022-08-07T04:15:21;101112.56;;;22.18;34.86
12949;BME280;6539;49.476;8.484;2022-08-07T04:17:50;101111.78;;;22.18;35.16
12949;BME280;6539;49.476;8.484;2022-08-07T04:20:18;101113.78;;;22.17;34.99
12949;BME280;6539;49.476;8.484;2022-08-07T04:22:45;101109.75;;;22.09;34.81
12949;BME280;6539;49.476;8.484;2022-08-07T04:25:14;101120.66;;;22.07;34.96
12949;BME280;6539;49.476;8.484;2022-08-07T04:27:40;101117.25;;;22.12;35.12
12949;BME280;6539;49.476;8.484;2022-08-07T04:30:10;101108.97;;;22.09;34.78
12949;BME280;6539;49.476;8.484;2022-08-07T04:32:36;101116.94;;;22.10;34.96
12949;BME280;6539;49.476;8.484;2022-08-07T04:35:07;101122.66;;;22.07;35.13
12949;BME280;6539;49.476;8.484;2022-08-07T04:37:35;101122.34;;;22.05;35.18
12949;BME280;6539;49.476;8.484;2022-08-07T04:40:04;101124.06;;;22.02;35.09
12949;BME280;6539;49.476;8.484;2022-08-07T04:42:32;101129.34;;;22.00;35.17
12949;BME280;6539;49.476;8.484;2022-08-07T04:45:03;101121.72;;;22.00;35.49
12949;BME280;6539;49.476;8.484;2022-08-07T04:48:03;101122.03;;;21.93;35.26
12949;BME280;6539;49.476;8.484;2022-08-07T04:50:50;101133.06;;;21.88;35.23
12949;BME280;6539;49.476;8.484;2022-08-07T04:53:36;101135.09;;;21.87;35.83
12949;BME280;6539;49.476;8.484;2022-08-07T04:56:20;101132.31;;;21.96;35.54
12949;BME280;6539;49.476;8.484;2022-08-07T04:59:00;101137.91;;;22.06;35.38
12949;BME280;6539;49.476;8.484;2022-08-07T05:01:44;101145.03;;;22.16;35.38
12949;BME280;6539;49.476;8.484;2022-08-07T05:04:17;101142.84;;;22.20;35.18
12949;BME280;6539;49.476;8.484;2022-08-07T05:07:06;101146.13;;;22.18;35.00
12949;BME280;6539;49.476;8.484;2022-08-07T05:12:21;101137.13;;;22.14;34.99
12949;BME280;6539;49.476;8.484;2022-08-07T05:14:53;101141.31;;;22.10;34.84
12949;BME280;6539;49.476;8.484;2022-08-07T05:17:27;101137.72;;;22.09;35.41
12949;BME280;6539;49.476;8.484;2022-08-07T05:19:57;101141.63;;;22.21;35.12
12949;BME280;6539;49.476;8.484;2022-08-07T05:22:24;101149.69;;;22.28;35.06
12949;BME280;6539;49.476;8.484;2022-08-07T05:24:51;101150.47;;;22.28;34.10
12949;BME280;6539;49.476;8.484;2022-08-07T05:27:21;101150.81;;;22.21;34.34
12949;BME280;6539;49.476;8.484;2022-08-07T05:29:52;101162.31;;;22.23;34.85
12949;BME280;6539;49.476;8.484;2022-08-07T05:32:21;101166.63;;;22.33;34.90
12949;BME280;6539;49.476;8.484;2022-08-07T05:34:51;101176.56;;;22.43;34.97
12949;BME280;6539;49.476;8.484;2022-08-07T05:37:19;101171.91;;;22.49;34.63
12949;BME280;6539;49.476;8.484;2022-08-07T05:39:47;101172.53;;;22.62;34.58
12949;BME280;6539;49.476;8.484;2022-08-07T05:42:15;101170.31;;;22.75;34.19
12949;BME280;6539;49.476;8.484;2022-08-07T05:44:45;101168.28;;;22.85;34.25
12949;BME280;6539;49.476;8.484;2022-08-07T05:47:17;101168.13;;;22.89;34.08
12949;BME280;6539;49.476;8.484;2022-08-07T05:49:51;101178.22;;;22.95;34.13
12949;BME280;6539;49.476;8.484;2022-08-07T05:52:18;101177.44;;;22.95;34.09
12949;BME280;6539;49.476;8.484;2022-08-07T05:54:46;101174.31;;;23.02;33.84
12949;BME280;6539;49.476;8.484;2022-08-07T05:57:16;101181.13;;;23.10;33.88
12949;BME280;6539;49.476;8.484;2022-08-07T05:59:45;101179.41;;;23.12;34.04
12949;BME280;6539;49.476;8.484;2022-08-07T06:02:14;101180.25;;;23.27;33.34
12949;BME280;6539;49.476;8.484;2022-08-07T06:04:51;101170.31;;;23.35;33.35
12949;BME280;6539;49.476;8.484;2022-08-07T06:07:23;101181.91;;;23.52;32.80
12949;BME280;6539;49.476;8.484;2022-08-07T06:09:52;101170.44;;;23.65;32.86
12949;BME280;6539;49.476;8.484;2022-08-07T06:12:20;101189.84;;;23.77;32.86
12949;BME280;6539;49.476;8.484;2022-08-07T06:14:48;101175.47;;;23.84;32.68
12949;BME280;6539;49.476;8.484;2022-08-07T06:17:15;101180.72;;;23.91;32.69
12949;BME280;6539;49.476;8.484;2022-08-07T06:19:42;101173.00;;;24.01;32.55
12949;BME280;6539;49.476;8.484;2022-08-07T06:22:09;101183.41;;;24.09;32.37
12949;BME280;6539;49.476;8.484;2022-08-07T06:24:37;101173.00;;;24.24;32.34
12949;BME280;6539;49.476;8.484;2022-08-07T06:27:06;101183.78;;;24.41;32.08
12949;BME280;6539;49.476;8.484;2022-08-07T06:29:35;101182.84;;;24.73;31.15
12949;BME280;6539;49.476;8.484;2022-08-07T06:32:01;101180.53;;;25.01;30.81
12949;BME280;6539;49.476;8.484;2022-08-07T06:34:29;101179.56;;;25.18;30.09
12949;BME280;6539;49.476;8.484;2022-08-07T06:36:57;101179.22;;;25.45;29.30
12949;BME280;6539;49.476;8.484;2022-08-07T06:39:22;101173.84;;;25.62;29.96
12949;BME280;6539;49.476;8.484;2022-08-07T06:42:14;101185.81;;;25.97;28.91
12949;BME280;6539;49.476;8.484;2022-08-07T06:44:48;101176.75;;;26.28;28.85
12949;BME280;6539;49.476;8.484;2022-08-07T06:47:18;101183.56;;;26.67;28.05
12949;BME280;6539;49.476;8.484;2022-08-07T06:49:46;101172.91;;;27.08;28.01
12949;BME280;6539;49.476;8.484;2022-08-07T06:52:16;101171.03;;;27.31;27.58
12949;BME280;6539;49.476;8.484;2022-08-07T06:54:48;101185.56;;;27.49;27.26
12949;BME280;6539;49.476;8.484;2022-08-07T06:57:15;101166.66;;;27.66;26.54
12949;BME280;6539;49.476;8.484;2022-08-07T06:59:46;101173.97;;;27.95;27.49
12949;BME280;6539;49.476;8.484;2022-08-07T07:02:20;101163.34;;;28.32;26.33
12949;BME280;6539;49.476;8.484;2022-08-07T07:04:46;101172.13;;;28.56;26.35
12949;BME280;6539;49.476;8.484;2022-08-07T07:07:17;101177.56;;;28.60;26.42
12949;BME280;6539;49.476;8.484;2022-08-07T07:09:48;101177.53;;;28.54;26.22
12949;BME280;6539;49.476;8.484;2022-08-07T07:15:19;101176.31;;;29.22;25.47
12949;BME280;6539;49.476;8.484;2022-08-07T07:18:10;101171.13;;;29.42;24.15
12949;BME280;6539;49.476;8.484;2022-08-07T07:20:52;101172.13;;;29.51;25.25
12949;BME280;6539;49.476;8.484;2022-08-07T07:23:22;101173.13;;;29.75;25.92
12949;BME280;6539;49.476;8.484;2022-08-07T07:25:56;101162.25;;;29.90;25.29
12949;BME280;6539;49.476;8.484;2022-08-07T07:28:39;101165.25;;;30.14;24.29
12949;BME280;6539;49.476;8.484;2022-08-07T07:31:25;101169.59;;;30.15;25.11
12949;BME280;6539;49.476;8.484;2022-08-07T07:34:04;101164.03;;;30.51;24.32
12949;BME280;6539;49.476;8.484;2022-08-07T07:36:33;101161.28;;;30.75;24.61
12949;BME280;6539;49.476;8.484;2022-08-07T07:39:05;101158.63;;;30.82;24.09
12949;BME280;6539;49.476;8.484;2022-08-07T07:41:33;101158.50;;;30.99;24.69
12949;BME280;6539;49.476;8.484;2022-08-07T07:44:02;101157.22;;;31.00;24.48
12949;BME280;6539;49.476;8.484;2022-08-07T07:46:36;101157.94;;;31.06;23.77
12949;BME280;6539;49.476;8.484;2022-08-07T07:49:03;101160.19;;;31.13;24.40
12949;BME280;6539;49.476;8.484;2022-08-07T07:51:34;101156.97;;;30.98;24.43
12949;BME280;6539;49.476;8.484;2022-08-07T07:54:02;101162.72;;;30.93;23.53
12949;BME280;6539;49.476;8.484;2022-08-07T07:56:33;101152.59;;;30.97;24.61
12949;BME280;6539;49.476;8.484;2022-08-07T07:59:04;101153.16;;;31.20;24.04
12949;BME280;6539;49.476;8.484;2022-08-07T08:01:32;101159.50;;;31.31;24.81
12949;BME280;6539;49.476;8.484;2022-08-07T08:04:06;101150.56;;;31.22;24.18
12949;BME280;6539;49.476;8.484;2022-08-07T08:06:40;101152.88;;;31.23;24.01
12949;BME280;6539;49.476;8.484;2022-08-07T08:09:10;101149.06;;;31.15;24.53
12949;BME280;6539;49.476;8.484;2022-08-07T08:11:39;101151.09;;;30.91;24.87
12949;BME280;6539;49.476;8.484;2022-08-07T08:14:13;101151.50;;;30.70;25.75
12949;BME280;6539;49.476;8.484;2022-08-07T08:16:43;101154.38;;;30.65;25.67
12949;BME280;6539;49.476;8.484;2022-08-07T08:19:15;101143.63;;;30.58;26.37
12949;BME280;6539;49.476;8.484;2022-08-07T08:21:48;101151.78;;;30.67;26.87
12949;BME280;6539;49.476;8.484;2022-08-07T08:24:44;101149.72;;;30.67;26.31
12949;BME280;6539;49.476;8.484;2022-08-07T08:27:39;101139.78;;;30.55;25.33
12949;BME280;6539;49.476;8.484;2022-08-07T08:30:12;101138.28;;;30.78;25.69
12949;BME280;6539;49.476;8.484;2022-08-07T08:32:48;101129.78;;;31.08;25.43
12949;BME280;6539;49.476;8.484;2022-08-07T08:35:25;101140.69;;;31.28;24.74
12949;BME280;6539;49.476;8.484;2022-08-07T08:38:01;101142.38;;;31.42;23.69
12949;BME280;6539;49.476;8.484;2022-08-07T08:40:40;101140.94;;;31.54;24.96
12949;BME280;6539;49.476;8.484;2022-08-07T08:43:26;101136.91;;;31.69;24.83
12949;BME280;6539;49.476;8.484;2022-08-07T08:46:24;101133.28;;;31.68;25.40
12949;BME280;6539;49.476;8.484;2022-08-07T08:49:15;101133.78;;;31.91;24.68
12949;BME280;6539;49.476;8.484;2022-08-07T08:52:07;101133.31;;;31.87;24.84
12949;BME280;6539;49.476;8.484;2022-08-07T08:58:09;101131.59;;;32.02;24.16
12949;BME280;6539;49.476;8.484;2022-08-07T09:00:50;101123.53;;;32.06;24.92
12949;BME280;6539;49.476;8.484;2022-08-07T09:12:39;101122.28;;;32.39;23.82
12949;BME280;6539;49.476;8.484;2022-08-07T09:15:29;101116.53;;;32.26;24.65
12949;BME280;6539;49.476;8.484;2022-08-07T09:27:28;101101.31;;;31.68;25.50
12949;BME280;6539;49.476;8.484;2022-08-07T09:30:04;101104.41;;;31.45;24.97
12949;BME280;6539;49.476;8.484;2022-08-07T09:33:07;101100.56;;;31.43;25.11
12949;BME280;6539;49.476;8.484;2022-08-07T09:49:41;101085.38;;;31.16;27.84
12949;BME280;6539;49.476;8.484;2022-08-07T09:52:24;101082.91;;;31.26;27.63
12949;BME280;6539;49.476;8.484;2022-08-07T09:55:21;101068.59;;;31.37;25.20
12949;BME280;6539;49.476;8.484;2022-08-07T10:01:06;101065.78;;;31.13;26.33
12949;BME280;6539;49.476;8.484;2022-08-07T10:10:18;101050.91;;;31.25;25.93
12949;BME280;6539;49.476;8.484;2022-08-07T10:31:32;101019.38;;;30.56;28.08
12949;BME280;6539;49.476;8.484;2022-08-07T10:37:25;101023.56;;;30.79;26.50
12949;BME280;6539;49.476;8.484;2022-08-07T10:42:44;101005.41;;;31.12;25.14
12949;BME280;6539;49.476;8.484;2022-08-07T10:45:17;101004.25;;;31.02;26.45
12949;BME280;6539;49.476;8.484;2022-08-07T10:56:02;100980.53;;;31.00;26.38
12949;BME280;6539;49.476;8.484;2022-08-07T10:59:05;100986.63;;;30.85;25.31
12949;BME280;6539;49.476;8.484;2022-08-07T11:01:50;100978.00;;;30.72;25.61
12949;BME280;6539;49.476;8.484;2022-08-07T11:04:54;100911.50;;;30.49;25.52
12949;BME280;6539;49.476;8.484;2022-08-07T11:10:22;100969.69;;;29.90;26.27
12949;BME280;6539;49.476;8.484;2022-08-07T11:13:02;100982.13;;;30.11;24.96
12949;BME280;6539;49.476;8.484;2022-08-07T11:15:38;100967.44;;;30.13;24.05
12949;BME280;6539;49.476;8.484;2022-08-07T11:18:21;100979.75;;;30.21;24.16
12949;BME280;6539;49.476;8.484;2022-08-07T11:26:49;100958.53;;;30.87;23.05
12949;BME280;6539;49.476;8.484;2022-08-07T11:29:33;100962.94;;;31.07;22.87
12949;BME280;6539;49.476;8.484;2022-08-07T11:32:15;100963.41;;;31.11;22.23
12949;BME280;6539;49.476;8.484;2022-08-07T11:35:04;100962.03;;;31.17;22.57
12949;BME280;6539;49.476;8.484;2022-08-07T12:01:06;100937.50;;;31.20;22.31
12949;BME280;6539;49.476;8.484;2022-08-07T12:06:55;100934.38;;;30.99;22.13
12949;BME280;6539;49.476;8.484;2022-08-07T12:09:35;100922.97;;;30.86;22.55
12949;BME280;6539;49.476;8.484;2022-08-07T12:12:12;100924.59;;;31.00;21.00
12949;BME280;6539;49.476;8.484;2022-08-07T12:14:57;100917.53;;;31.07;21.46
12949;BME280;6539;49.476;8.484;2022-08-07T12:17:42;100916.75;;;31.06;21.22
12949;BME280;6539;49.476;8.484;2022-08-07T12:20:22;100921.84;;;31.13;21.54
12949;BME280;6539;49.476;8.484;2022-08-07T12:25:37;100919.69;;;31.19;20.29
12949;BME280;6539;49.476;8.484;2022-08-07T12:31:38;100918.47;;;31.15;20.43
12949;BME280;6539;49.476;8.484;2022-08-07T12:34:10;100927.88;;;31.04;20.25
12949;BME280;6539;49.476;8.484;2022-08-07T12:36:41;100921.59;;;30.93;20.46
12949;BME280;6539;49.476;8.484;2022-08-07T12:39:13;100917.44;;;30.94;20.52
12949;BME280;6539;49.476;8.484;2022-08-07T12:41:41;100919.13;;;31.02;21.45
12949;BME280;6539;49.476;8.484;2022-08-07T12:47:09;100913.69;;;31.04;20.35
12949;BME280;6539;49.476;8.484;2022-08-07T12:52:40;100902.03;;;31.08;21.60
12949;BME280;6539;49.476;8.484;2022-08-07T12:55:30;100903.25;;;31.12;20.77
12949;BME280;6539;49.476;8.484;2022-08-07T12:58:01;100900.66;;;31.14;20.57
12949;BME280;6539;49.476;8.484;2022-08-07T13:01:06;100900.66;;;31.14;20.43
12949;BME280;6539;49.476;8.484;2022-08-07T13:10:37;100891.47;;;31.08;20.63
12949;BME280;6539;49.476;8.484;2022-08-07T13:13:00;100882.34;;;31.15;21.21
12949;BME280;6539;49.476;8.484;2022-08-07T13:15:52;100884.13;;;31.18;21.13
12949;BME280;6539;49.476;8.484;2022-08-07T13:21:29;100893.47;;;31.13;20.57
12949;BME280;6539;49.476;8.484;2022-08-07T13:24:21;100884.31;;;31.02;20.39
12949;BME280;6539;49.476;8.484;2022-08-07T13:27:24;100871.38;;;31.06;20.40
12949;BME280;6539;49.476;8.484;2022-08-07T13:30:09;100876.59;;;31.02;19.79
12949;BME280;6539;49.476;8.484;2022-08-07T13:36:11;100861.25;;;30.92;20.20
12949;BME280;6539;49.476;8.484;2022-08-07T13:39:06;100864.78;;;30.98;20.91
12949;BME280;6539;49.476;8.484;2022-08-07T13:41:49;100861.13;;;31.03;21.02
12949;BME280;6539;49.476;8.484;2022-08-07T13:44:22;100866.69;;;31.09;22.02
12949;BME280;6539;49.476;8.484;2022-08-07T13:46:56;100854.97;;;30.99;21.24
12949;BME280;6539;49.476;8.484;2022-08-07T13:49:44;100852.97;;;31.13;21.36
12949;BME280;6539;49.476;8.484;2022-08-07T13:52:11;100852.50;;;31.27;20.84
12949;BME280;6539;49.476;8.484;2022-08-07T13:54:42;100851.72;;;31.45;22.56
12949;BME280;6539;49.476;8.484;2022-08-07T13:57:11;100856.97;;;31.41;20.20
12949;BME280;6539;49.476;8.484;2022-08-07T13:59:49;100846.19;;;31.34;20.02
12949;BME280;6539;49.476;8.484;2022-08-07T14:02:27;100850.66;;;31.30;20.08
12949;BME280;6539;49.476;8.484;2022-08-07T14:05:01;100858.38;;;31.29;20.02
12949;BME280;6539;49.476;8.484;2022-08-07T14:07:46;100845.28;;;31.26;19.89
12949;BME280;6539;49.476;8.484;2022-08-07T14:10:15;100842.00;;;31.22;20.36
12949;BME280;6539;49.476;8.484;2022-08-07T14:13:00;100832.84;;;31.29;21.17
12949;BME280;6539;49.476;8.484;2022-08-07T14:15:49;100826.56;;;31.36;20.63
12949;BME280;6539;49.476;8.484;2022-08-07T14:18:25;100832.41;;;31.25;19.80
12949;BME280;6539;49.476;8.484;2022-08-07T14:21:01;100835.66;;;31.16;20.23
12949;BME280;6539;49.476;8.484;2022-08-07T14:23:35;100835.50;;;31.09;19.57
12949;BME280;6539;49.476;8.484;2022-08-07T14:26:21;100834.13;;;30.97;20.61
12949;BME280;6539;49.476;8.484;2022-08-07T14:28:49;100824.84;;;30.96;19.81
12949;BME280;6539;49.476;8.484;2022-08-07T14:31:16;100821.56;;;30.92;21.02
12949;BME280;6539;49.476;8.484;2022-08-07T14:33:45;100819.00;;;30.88;21.28
12949;BME280;6539;49.476;8.484;2022-08-07T14:36:12;100809.53;;;30.86;20.43
12949;BME280;6539;49.476;8.484;2022-08-07T14:38:40;100808.78;;;30.80;21.28
12949;BME280;6539;49.476;8.484;2022-08-07T14:41:10;100810.09;;;30.79;20.97
12949;BME280;6539;49.476;8.484;2022-08-07T14:43:46;100817.38;;;30.74;20.25
12949;BME280;6539;49.476;8.484;2022-08-07T14:46:17;100816.75;;;30.63;20.40
12949;BME280;6539;49.476;8.484;2022-08-07T14:48:49;100817.09;;;30.54;20.49
12949;BME280;6539;49.476;8.484;2022-08-07T14:51:23;100812.75;;;30.53;20.61
12949;BME280;6539;49.476;8.484;2022-08-07T14:54:00;100813.56;;;30.48;21.14
12949;BME280;6539;49.476;8.484;2022-08-07T14:56:29;100811.59;;;30.43;20.99
12949;BME280;6539;49.476;8.484;2022-08-07T14:59:08;100806.66;;;30.43;21.33
12949;BME280;6539;49.476;8.484;2022-08-07T15:01:39;100801.53;;;30.42;21.00
12949;BME280;6539;49.476;8.484;2022-08-07T15:04:10;100798.47;;;30.40;21.04
12949;BME280;6539;49.476;8.484;2022-08-07T15:06:41;100792.81;;;30.40;21.08
12949;BME280;6539;49.476;8.484;2022-08-07T15:09:17;100797.72;;;30.39;20.24
12949;BME280;6539;49.476;8.484;2022-08-07T15:12:06;100794.41;;;30.35;20.10
12949;BME280;6539;49.476;8.484;2022-08-07T15:14:36;100789.53;;;30.30;20.63
12949;BME280;6539;49.476;8.484;2022-08-07T15:17:15;100795.50;;;30.27;19.90
12949;BME280;6539;49.476;8.484;2022-08-07T15:19:59;100788.91;;;30.19;19.85
12949;BME280;6539;49.476;8.484;2022-08-07T15:22:34;100788.22;;;30.12;20.57
12949;BME280;6539;49.476;8.484;2022-08-07T15:25:12;100787.13;;;30.15;20.68
12949;BME280;6539;49.476;8.484;2022-08-07T15:27:43;100783.91;;;30.06;20.08
12949;BME280;6539;49.476;8.484;2022-08-07T15:30:14;100788.44;;;29.90;20.33
12949;BME280;6539;49.476;8.484;2022-08-07T15:32:49;100790.38;;;29.77;20.43
12949;BME280;6539;49.476;8.484;2022-08-07T15:35:23;100778.50;;;29.78;20.56
12949;BME280;6539;49.476;8.484;2022-08-07T15:37:54;100779.28;;;29.79;20.81
12949;BME280;6539;49.476;8.484;2022-08-07T15:40:26;100779.28;;;29.79;20.40
12949;BME280;6539;49.476;8.484;2022-08-07T15:45:40;100776.47;;;29.79;20.58
12949;BME280;6539;49.476;8.484;2022-08-07T15:50:50;100774.69;;;29.76;20.95
12949;BME280;6539;49.476;8.484;2022-08-07T15:53:39;100769.78;;;29.76;20.31
12949;BME280;6539;49.476;8.484;2022-08-07T15:56:09;100769.28;;;29.72;19.99
12949;BME280;6539;49.476;8.484;2022-08-07T15:58:56;100763.69;;;29.67;20.73
12949;BME280;6539;49.476;8.484;2022-08-07T16:04:06;100759.38;;;29.60;20.40
12949;BME280;6539;49.476;8.484;2022-08-07T16:06:54;100759.13;;;29.58;21.40